Colorado Star — 9HA2189 — position and weather

sailwx.info

Track history (hours):
 
Tides and Currents Weather Stations Pressure Air Temp Water Temp Dewpoint Dewpoint Depression Visibility Wind Speed Wind Dir Waves Ship Positions

Colorado Star

Last reported at 2016-Dec-10 00:22 UTC. Time now 2016-Dec-10 01:17 UTC.
Position N 51°57' E 004°05'.

Length 128 m; draft 8 m.

Type: Ship. MMSI: 248127000.

Date/timePositionNaut miles runAvg speedWind from/ knotsBaromVisibWave heightAir tempDewpointWater temp
2016-Dec-10 00:22N 51°57' E 004°05'0 0.0
2016-Dec-09 23:25N 51°57' E 004°05'0 0.0
2016-Dec-09 22:22N 51°57' E 004°05'0 0.0
2016-Dec-09 21:28N 51°57' E 004°05'0 0.0
2016-Dec-09 20:31N 51°57' E 004°05'0 0.0
2016-Dec-09 19:28N 51°57' E 004°05'0 0.0
2016-Dec-09 18:31N 51°57' E 004°05'0 0.0
2016-Dec-09 17:31N 51°57' E 004°05'0 0.0
2016-Dec-09 16:31N 51°57' E 004°05'0 0.0
2016-Dec-09 15:31N 51°57' E 004°05'0 0.0
2016-Dec-09 14:31N 51°57' E 004°05'0 0.0
2016-Dec-09 13:31N 51°57' E 004°05'0 0.0
2016-Dec-09 12:31N 51°57' E 004°05'0 0.0
2016-Dec-09 11:25N 51°57' E 004°05'0 0.0
2016-Dec-09 10:13N 51°57' E 004°05'0 0.2
2016-Dec-09 09:31N 51°57' E 004°05'0 0.0
2016-Dec-09 08:31N 51°57' E 004°05'0 0.0
2016-Dec-09 07:25N 51°57' E 004°05'0 0.0
2016-Dec-09 06:25N 51°57' E 004°05'0 0.0
2016-Dec-09 05:25N 51°57' E 004°05'0 0.0
2016-Dec-09 04:25N 51°57' E 004°05'0 0.0
2016-Dec-09 03:25N 51°57' E 004°05'0 0.0
2016-Dec-09 01:31N 51°57' E 004°05'0 0.0
2016-Dec-09 00:31N 51°57' E 004°05'0 0.0
2016-Dec-08 23:25N 51°57' E 004°05'0 0.0
2016-Dec-08 22:13N 51°57' E 004°05'0 0.0
2016-Dec-08 21:19N 51°57' E 004°05'0 0.0
2016-Dec-08 20:25N 51°57' E 004°05'0 0.0
2016-Dec-08 19:25N 51°57' E 004°05'0 0.0
2016-Dec-08 18:31N 51°57' E 004°05'0 0.0
2016-Dec-08 17:31N 51°57' E 004°05'0 0.0
2016-Dec-08 15:13N 51°57' E 004°05'0 0.0
2016-Dec-08 14:31N 51°57' E 004°05'0 0.0
2016-Dec-08 13:34N 51°57' E 004°05'2 2.0
2016-Dec-08 12:34N 51°59' E 004°04'10 9.7
2016-Dec-08 11:34N 51°60' E 003°48'8 7.4
2016-Dec-08 10:32N 51°56' E 003°37'0 0.1
2016-Dec-08 09:29N 51°56' E 003°37'0 0.0
2016-Dec-08 08:32N 51°56' E 003°37'0 0.0
2016-Dec-08 07:32N 51°56' E 003°37'0 0.0
2016-Dec-08 06:32N 51°56' E 003°37'0 0.0
2016-Dec-08 05:14N 51°56' E 003°37'0 0.0
2016-Dec-08 04:23N 51°56' E 003°37'0 0.0
2016-Dec-08 03:32N 51°56' E 003°37'0 0.0
2016-Dec-08 02:32N 51°56' E 003°37'0 0.0
2016-Dec-08 01:26N 51°56' E 003°37'0 0.0
2016-Dec-08 00:26N 51°56' E 003°37'0 0.0
2016-Dec-07 23:32N 51°56' E 003°37'0 0.0
2016-Dec-07 22:29N 51°56' E 003°37'0 0.0
2016-Dec-07 21:32N 51°56' E 003°37'0 0.0
2016-Dec-07 20:32N 51°56' E 003°37'0 0.0
2016-Dec-07 19:32N 51°56' E 003°37'0 0.0
2016-Dec-07 18:29N 51°56' E 003°37'1 1.4
2016-Dec-07 17:33N 51°57' E 003°36'1211.5
2016-Dec-07 16:33N 51°54' E 003°18'1111.5
2016-Dec-07 15:34N 51°50' E 002°60'1111.2
2016-Dec-07 14:33N 51°47' E 002°43'1110.7
2016-Dec-07 13:33N 51°40' E 002°29'1110.7
2016-Dec-07 12:34N 51°32' E 002°18'1110.8
2016-Dec-07 11:33N 51°23' E 002°07'1010.5
2016-Dec-07 10:34N 51°13' E 002°02'1010.3
2016-Dec-07 09:34N 51°08' E 001°48'1110.7
2016-Dec-07 08:33N 51°00' E 001°36'1110.7
2016-Dec-07 07:33N 50°51' E 001°26'1312.0
2016-Dec-07 06:26N 50°40' E 001°16'4210.6
2016-Dec-07 02:32N 50°23' E 000°16'1010.8
2016-Dec-07 01:33N 50°20' E 000°01'1110.9
2016-Dec-07 00:34N 50°17' W 000°16'1211.5
2016-Dec-06 23:32N 50°14' W 000°34'1111.3
2016-Dec-06 22:33N 50°11' W 000°50'1111.2
2016-Dec-06 21:33N 50°08' W 001°07'1111.4
2016-Dec-06 20:33N 50°05' W 001°24'2211.0
2016-Dec-06 18:33N 49°59' W 001°57'1210.3
2016-Dec-06 17:22N 49°56' W 002°15'910.8
2016-Dec-06 16:33N 49°53' W 002°28'1110.9
2016-Dec-06 15:33N 49°50' W 002°45'1110.7
2016-Dec-06 14:34N 49°45' W 002°60'1110.9
2016-Dec-06 13:33N 49°39' W 003°13'4 4.4
2016-Dec-06 12:34N 49°37' W 003°19'1110.9
2016-Dec-06 11:33N 49°32' W 003°34'1111.0
2016-Dec-06 10:31N 49°27' W 003°50'1110.9
2016-Dec-06 09:34N 49°22' W 004°05'1211.2
2016-Dec-06 08:30N 49°16' W 004°20'1111.4
2016-Dec-06 07:33N 49°11' W 004°35'1412.7
2016-Dec-06 06:26N 49°04' W 004°54'1011.7
2016-Dec-06 05:33N 48°59' W 005°07'1211.6
2016-Dec-06 04:33N 48°52' W 005°22'1111.3
2016-Dec-06 03:33N 48°46' W 005°36'1111.2
2016-Dec-06 02:33N 48°36' W 005°44'1111.0
2016-Dec-06 01:31N 48°26' W 005°52'  
2016-Dec-03 17:26N 40°31' W 009°50'8 8.8
2016-Dec-03 16:33N 40°24' W 009°50'9 8.8
2016-Dec-03 15:33N 40°15' W 009°50'54 9.0
2016-Dec-03 09:30N 39°20' W 009°51'8 8.9
2016-Dec-03 08:33N 39°12' W 009°51'9 9.1
2016-Dec-03 07:33N 39°03' W 009°51'1111.3
2016-Dec-03 06:34N 38°52' W 009°51'9 9.0
2016-Dec-03 05:33N 38°42' W 009°51'9 9.3
2016-Dec-03 04:33N 38°34' W 009°49'9 9.1
2016-Dec-03 03:33N 38°25' W 009°46'9 8.9
2016-Dec-03 02:33N 38°16' W 009°44'9 8.9
2016-Dec-03 01:32N 38°07' W 009°41'237 8.0
2016-Dec-01 20:04N 35°59' W 005°32'4 8.4
2016-Dec-01 19:33N 35°60' W 005°27'9 9.0
2016-Dec-01 18:31N 36°02' W 005°15'155 9.0
2016-Dec-01 01:21N 36°29' W 002°07'21 9.2
2016-Nov-30 23:03N 36°43' W 001°47'5 9.2
2016-Nov-30 22:30N 36°46' W 001°42'53 8.8
2016-Nov-30 16:33N 37°21' W 000°53'9 8.8
2016-Nov-30 15:33N 37°27' W 000°44'9 8.9
2016-Nov-30 14:33N 37°33' W 000°36'9 9.4
2016-Nov-30 13:33N 37°40' W 000°28'  
Track history (hours):
 
Tides and Currents Weather Stations Pressure Air Temp Water Temp Dewpoint Dewpoint Depression Visibility Wind Speed Wind Dir Waves Ship Positions

Colorado Star

Last reported at 2016-Dec-10 00:22 UTC. Time now 2016-Dec-10 01:17 UTC.
Position N 51°57' E 004°05'.

Length 128 m; draft 8 m.

Type: Ship. MMSI: 248127000.

Date/timePositionNaut miles runAvg speedWind from/ knotsBaromVisibWave heightAir tempDewpointWater temp
2016-Dec-10 00:22N 51°57' E 004°05'0 0.0
2016-Dec-09 23:25N 51°57' E 004°05'0 0.0
2016-Dec-09 22:22N 51°57' E 004°05'0 0.0
2016-Dec-09 21:28N 51°57' E 004°05'0 0.0
2016-Dec-09 20:31N 51°57' E 004°05'0 0.0
2016-Dec-09 19:28N 51°57' E 004°05'0 0.0
2016-Dec-09 18:31N 51°57' E 004°05'0 0.0
2016-Dec-09 17:31N 51°57' E 004°05'0 0.0
2016-Dec-09 16:31N 51°57' E 004°05'0 0.0
2016-Dec-09 15:31N 51°57' E 004°05'0 0.0
2016-Dec-09 14:31N 51°57' E 004°05'0 0.0
2016-Dec-09 13:31N 51°57' E 004°05'0 0.0
2016-Dec-09 12:31N 51°57' E 004°05'0 0.0
2016-Dec-09 11:25N 51°57' E 004°05'0 0.0
2016-Dec-09 10:13N 51°57' E 004°05'0 0.2
2016-Dec-09 09:31N 51°57' E 004°05'0 0.0
2016-Dec-09 08:31N 51°57' E 004°05'0 0.0
2016-Dec-09 07:25N 51°57' E 004°05'0 0.0
2016-Dec-09 06:25N 51°57' E 004°05'0 0.0
2016-Dec-09 05:25N 51°57' E 004°05'0 0.0
2016-Dec-09 04:25N 51°57' E 004°05'0 0.0
2016-Dec-09 03:25N 51°57' E 004°05'0 0.0
2016-Dec-09 01:31N 51°57' E 004°05'0 0.0
2016-Dec-09 00:31N 51°57' E 004°05'0 0.0
2016-Dec-08 23:25N 51°57' E 004°05'0 0.0
2016-Dec-08 22:13N 51°57' E 004°05'0 0.0
2016-Dec-08 21:19N 51°57' E 004°05'0 0.0
2016-Dec-08 20:25N 51°57' E 004°05'0 0.0
2016-Dec-08 19:25N 51°57' E 004°05'0 0.0
2016-Dec-08 18:31N 51°57' E 004°05'0 0.0
2016-Dec-08 17:31N 51°57' E 004°05'0 0.0
2016-Dec-08 15:13N 51°57' E 004°05'0 0.0
2016-Dec-08 14:31N 51°57' E 004°05'0 0.0
2016-Dec-08 13:34N 51°57' E 004°05'2 2.0
2016-Dec-08 12:34N 51°59' E 004°04'10 9.7
2016-Dec-08 11:34N 51°60' E 003°48'8 7.4
2016-Dec-08 10:32N 51°56' E 003°37'0 0.1
2016-Dec-08 09:29N 51°56' E 003°37'0 0.0
2016-Dec-08 08:32N 51°56' E 003°37'0 0.0
2016-Dec-08 07:32N 51°56' E 003°37'0 0.0
2016-Dec-08 06:32N 51°56' E 003°37'0 0.0
2016-Dec-08 05:14N 51°56' E 003°37'0 0.0
2016-Dec-08 04:23N 51°56' E 003°37'0 0.0
2016-Dec-08 03:32N 51°56' E 003°37'0 0.0
2016-Dec-08 02:32N 51°56' E 003°37'0 0.0
2016-Dec-08 01:26N 51°56' E 003°37'0 0.0
2016-Dec-08 00:26N 51°56' E 003°37'0 0.0
2016-Dec-07 23:32N 51°56' E 003°37'0 0.0
2016-Dec-07 22:29N 51°56' E 003°37'0 0.0
2016-Dec-07 21:32N 51°56' E 003°37'0 0.0
2016-Dec-07 20:32N 51°56' E 003°37'0 0.0
2016-Dec-07 19:32N 51°56' E 003°37'0 0.0
2016-Dec-07 18:29N 51°56' E 003°37'1 1.4
2016-Dec-07 17:33N 51°57' E 003°36'1211.5
2016-Dec-07 16:33N 51°54' E 003°18'1111.5
2016-Dec-07 15:34N 51°50' E 002°60'1111.2
2016-Dec-07 14:33N 51°47' E 002°43'1110.7
2016-Dec-07 13:33N 51°40' E 002°29'1110.7
2016-Dec-07 12:34N 51°32' E 002°18'1110.8
2016-Dec-07 11:33N 51°23' E 002°07'1010.5
2016-Dec-07 10:34N 51°13' E 002°02'1010.3
2016-Dec-07 09:34N 51°08' E 001°48'1110.7
2016-Dec-07 08:33N 51°00' E 001°36'1110.7
2016-Dec-07 07:33N 50°51' E 001°26'1312.0
2016-Dec-07 06:26N 50°40' E 001°16'4210.6
2016-Dec-07 02:32N 50°23' E 000°16'1010.8
2016-Dec-07 01:33N 50°20' E 000°01'1110.9
2016-Dec-07 00:34N 50°17' W 000°16'1211.5
2016-Dec-06 23:32N 50°14' W 000°34'1111.3
2016-Dec-06 22:33N 50°11' W 000°50'1111.2
2016-Dec-06 21:33N 50°08' W 001°07'1111.4
2016-Dec-06 20:33N 50°05' W 001°24'2211.0
2016-Dec-06 18:33N 49°59' W 001°57'1210.3
2016-Dec-06 17:22N 49°56' W 002°15'910.8
2016-Dec-06 16:33N 49°53' W 002°28'1110.9
2016-Dec-06 15:33N 49°50' W 002°45'1110.7
2016-Dec-06 14:34N 49°45' W 002°60'1110.9
2016-Dec-06 13:33N 49°39' W 003°13'4 4.4
2016-Dec-06 12:34N 49°37' W 003°19'1110.9
2016-Dec-06 11:33N 49°32' W 003°34'1111.0
2016-Dec-06 10:31N 49°27' W 003°50'1110.9
2016-Dec-06 09:34N 49°22' W 004°05'1211.2
2016-Dec-06 08:30N 49°16' W 004°20'1111.4
2016-Dec-06 07:33N 49°11' W 004°35'1412.7
2016-Dec-06 06:26N 49°04' W 004°54'1011.7
2016-Dec-06 05:33N 48°59' W 005°07'1211.6
2016-Dec-06 04:33N 48°52' W 005°22'1111.3
2016-Dec-06 03:33N 48°46' W 005°36'1111.2
2016-Dec-06 02:33N 48°36' W 005°44'1111.0
2016-Dec-06 01:31N 48°26' W 005°52'  
2016-Dec-03 17:26N 40°31' W 009°50'8 8.8
2016-Dec-03 16:33N 40°24' W 009°50'9 8.8
2016-Dec-03 15:33N 40°15' W 009°50'54 9.0
2016-Dec-03 09:30N 39°20' W 009°51'8 8.9
2016-Dec-03 08:33N 39°12' W 009°51'9 9.1
2016-Dec-03 07:33N 39°03' W 009°51'1111.3
2016-Dec-03 06:34N 38°52' W 009°51'9 9.0
2016-Dec-03 05:33N 38°42' W 009°51'9 9.3
2016-Dec-03 04:33N 38°34' W 009°49'9 9.1
2016-Dec-03 03:33N 38°25' W 009°46'9 8.9
2016-Dec-03 02:33N 38°16' W 009°44'9 8.9
2016-Dec-03 01:32N 38°07' W 009°41'237 8.0
2016-Dec-01 20:04N 35°59' W 005°32'4 8.4
2016-Dec-01 19:33N 35°60' W 005°27'9 9.0
2016-Dec-01 18:31N 36°02' W 005°15'155 9.0
2016-Dec-01 01:21N 36°29' W 002°07'21 9.2
2016-Nov-30 23:03N 36°43' W 001°47'5 9.2
2016-Nov-30 22:30N 36°46' W 001°42'53 8.8
2016-Nov-30 16:33N 37°21' W 000°53'9 8.8
2016-Nov-30 15:33N 37°27' W 000°44'9 8.9
2016-Nov-30 14:33N 37°33' W 000°36'9 9.4
2016-Nov-30 13:33N 37°40' W 000°28'  

Dump ship's entire track history